Time;durP1;ratioP1;P1;durP2;ratioP2;P2;SDS_P1;SDS_P2;PMS_P1;PMS_P2;Temp;Humidity;BMP_temperature;BMP_pressure;BME280_temperature;BME280_humidity;BME280_pressure;Samples;Min_cycle;Max_cycle;Signal;HPM_P1;HPM_P2
2022/10/24 00:01:20;;;;;;;3.70;1.80;;;;;;;14.59;98.97;100062.03;5103284;28;20211;-82
2022/10/24 00:03:48;;;;;;;3.50;2.20;;;;;;;14.58;98.97;100061.19;5111772;28;20597;-82
2022/10/24 00:06:14;;;;;;;3.40;1.90;;;;;;;14.62;99.00;100066.25;5111930;28;20207;-82
2022/10/24 00:08:42;;;;;;;7.20;2.30;;;;;;;14.62;98.87;100064.44;5108249;28;20207;-83
2022/10/24 00:11:11;;;;;;;4.67;2.20;;;;;;;14.62;98.65;100061.75;5111280;28;20196;-82
2022/10/24 00:13:39;;;;;;;5.97;2.03;;;;;;;14.64;98.78;100064.28;5104075;28;20228;-82
2022/10/24 00:16:06;;;;;;;3.83;2.30;;;;;;;14.65;99.02;100063.31;5109751;28;20200;-83
2022/10/24 00:18:33;;;;;;;3.33;1.80;;;;;;;14.67;98.73;100072.06;5112933;28;20219;-81
2022/10/24 00:20:59;;;;;;;6.80;2.00;;;;;;;14.68;99.21;100055.00;5109095;28;20207;-82
2022/10/24 00:23:26;;;;;;;5.13;2.30;;;;;;;14.69;98.98;100072.78;5109884;27;20234;-81
2022/10/24 00:25:52;;;;;;;4.63;2.20;;;;;;;14.69;98.80;100078.97;5111821;28;20200;-83
2022/10/24 00:28:19;;;;;;;3.03;1.80;;;;;;;14.70;98.91;100074.44;5109745;27;20670;-82
2022/10/24 00:30:50;;;;;;;3.43;1.70;;;;;;;14.70;98.85;100077.97;5111046;28;20204;-81
2022/10/24 00:33:17;;;;;;;3.23;2.80;;;;;;;14.71;98.85;100070.78;5112330;28;20235;-82
2022/10/24 00:35:43;;;;;;;4.30;1.77;;;;;;;14.72;98.78;100072.47;5110913;28;20208;-82
2022/10/24 00:38:10;;;;;;;4.90;1.80;;;;;;;14.72;98.74;100072.47;5108709;28;20208;-80
2022/10/24 00:40:36;;;;;;;5.63;1.87;;;;;;;14.71;98.55;100078.81;5111150;28;20211;-82
2022/10/24 00:43:03;;;;;;;2.23;1.60;;;;;;;14.70;98.51;100079.81;5111092;28;20223;-82
2022/10/24 00:45:44;;;;;;;4.33;1.90;;;;;;;14.68;98.28;100069.25;5110944;28;20294;-82
2022/10/24 00:48:16;;;;;;;4.47;2.07;;;;;;;14.67;98.35;100074.75;5106612;28;20212;-82
2022/10/24 00:50:43;;;;;;;5.33;2.07;;;;;;;14.65;98.17;100066.84;5105877;28;20571;-81
2022/10/24 00:53:09;;;;;;;2.43;1.87;;;;;;;14.63;98.42;100074.16;5102877;28;20313;-82
2022/10/24 00:55:37;;;;;;;5.33;2.23;;;;;;;14.62;98.50;100069.78;5105041;28;20286;-83
2022/10/24 00:58:04;;;;;;;3.67;2.10;;;;;;;14.62;98.11;100064.44;5103860;28;20196;-82
2022/10/24 01:00:32;;;;;;;4.30;1.90;;;;;;;14.61;98.29;100064.56;5107179;28;20245;-82
2022/10/24 01:03:00;;;;;;;8.20;2.37;;;;;;;14.58;98.12;100066.53;5106088;28;20246;-82
2022/10/24 01:05:34;;;;;;;4.50;1.80;;;;;;;14.57;98.31;100078.22;5111421;28;20195;-82
2022/10/24 01:08:16;;;;;;;4.40;2.00;;;;;;;14.54;98.08;100074.97;5108152;28;20697;-82
2022/10/24 01:10:53;;;;;;;4.93;1.83;;;;;;;14.56;98.70;100067.66;5110980;28;20202;-81
2022/10/24 01:13:31;;;;;;;3.03;1.87;;;;;;;14.56;98.79;100063.13;5111054;28;20221;-82
2022/10/24 01:16:05;;;;;;;5.40;2.50;;;;;;;14.57;99.50;100062.16;5109954;28;20653;-81
2022/10/24 01:18:37;;;;;;;4.13;2.33;;;;;;;14.62;99.55;100061.75;5106362;28;20219;-82
2022/10/24 01:21:23;;;;;;;4.70;2.10;;;;;;;14.66;99.81;100067.69;5109288;28;20655;-82
2022/10/24 01:24:22;;;;;;;3.67;2.13;;;;;;;14.68;99.97;100057.69;5110420;28;20579;-82
2022/10/24 01:27:04;;;;;;;3.93;2.37;;;;;;;14.66;100.00;100055.16;5110162;28;20199;-82
2022/10/24 01:29:51;;;;;;;7.10;2.30;;;;;;;14.67;100.00;100061.34;5110111;28;20210;-82
2022/10/24 01:32:28;;;;;;;5.00;2.07;;;;;;;14.66;100.00;100052.47;5108377;28;20228;-83
2022/10/24 01:34:58;;;;;;;4.33;2.13;;;;;;;14.67;100.00;100047.94;5108597;28;20293;-82
2022/10/24 01:37:30;;;;;;;4.33;2.10;;;;;;;14.67;100.00;100045.28;5111204;28;20219;-83
2022/10/24 01:40:03;;;;;;;6.07;2.27;;;;;;;14.67;100.00;100045.28;5108816;28;20203;-83
2022/10/24 01:42:32;;;;;;;6.90;2.43;;;;;;;14.66;100.00;100035.53;5100901;28;20231;-84
2022/10/24 01:45:03;;;;;;;7.87;2.40;;;;;;;14.65;100.00;100044.56;5111606;28;20199;-83
2022/10/24 01:47:37;;;;;;;3.93;1.93;;;;;;;14.65;100.00;100040.03;5106685;28;20210;-82
2022/10/24 01:50:07;;;;;;;6.03;2.50;;;;;;;14.68;100.00;100044.28;5105466;28;20551;-82
2022/10/24 01:52:37;;;;;;;8.20;2.53;;;;;;;14.66;100.00;100035.53;5105294;28;20218;-83
2022/10/24 01:55:04;;;;;;;5.83;2.00;;;;;;;14.68;100.00;100038.94;5110414;28;20547;-81
2022/10/24 01:57:32;;;;;;;5.40;2.63;;;;;;;14.67;100.00;100037.22;5104755;28;20211;-82
2022/10/24 02:00:00;;;;;;;7.87;2.63;;;;;;;14.69;100.00;100043.31;5107674;28;20612;-81
2022/10/24 02:02:30;;;;;;;4.30;2.17;;;;;;;14.68;100.00;100041.59;5110045;28;20220;-82
2022/10/24 02:05:00;;;;;;;5.03;2.43;;;;;;;14.68;100.00;100039.78;5110262;27;20201;-81
2022/10/24 02:07:30;;;;;;;4.47;1.90;;;;;;;14.69;100.00;100040.63;5111160;28;20210;-82
2022/10/24 02:10:02;;;;;;;3.83;2.50;;;;;;;14.68;100.00;100045.13;5110003;28;20202;-82
2022/10/24 02:12:30;;;;;;;3.73;2.07;;;;;;;14.69;100.00;100032.59;5108803;28;20696;-82
2022/10/24 02:15:04;;;;;;;4.87;2.10;;;;;;;14.68;100.00;100034.41;5106822;28;20200;-82
2022/10/24 02:17:31;;;;;;;5.83;2.10;;;;;;;14.67;100.00;100037.22;5110259;28;20806;-81
2022/10/24 02:19:58;;;;;;;7.10;2.00;;;;;;;14.63;100.00;100028.63;5110281;28;20203;-81
2022/10/24 02:22:30;;;;;;;6.80;2.30;;;;;;;14.63;99.94;100025.94;5108584;28;20234;-81
2022/10/24 02:25:02;;;;;;;3.93;2.30;;;;;;;14.60;99.80;100026.19;5108250;28;20200;-82
2022/10/24 02:27:34;;;;;;;4.47;2.03;;;;;;;14.59;99.83;100011.09;5108782;28;20199;-81
2022/10/24 02:30:06;;;;;;;5.97;2.40;;;;;;;14.58;99.60;99998.69;5110793;28;20702;-82
2022/10/24 02:32:38;;;;;;;5.33;2.20;;;;;;;14.55;99.20;99997.13;5102217;28;20228;-82
2022/10/24 02:35:07;;;;;;;5.83;2.13;;;;;;;14.52;99.12;100002.75;5105394;28;20684;-82
2022/10/24 02:37:37;;;;;;;4.20;2.23;;;;;;;14.48;99.14;100003.19;5104135;28;20211;-81
2022/10/24 02:40:06;;;;;;;7.60;2.47;;;;;;;14.44;98.66;99999.09;5109759;28;20207;-81
2022/10/24 02:42:35;;;;;;;3.67;2.30;;;;;;;14.38;98.77;100002.28;5102420;28;20317;-82
2022/10/24 02:45:06;;;;;;;5.90;2.47;;;;;;;14.34;99.07;100001.69;5106428;28;20200;-83
2022/10/24 02:47:33;;;;;;;5.63;2.30;;;;;;;14.30;99.20;100018.19;5110197;28;20211;-82
2022/10/24 02:50:00;;;;;;;6.07;2.47;;;;;;;14.27;99.05;100015.78;5107278;28;20624;-82
2022/10/24 02:52:29;;;;;;;7.73;2.77;;;;;;;14.23;98.99;100017.88;5109907;28;20584;-82
2022/10/24 02:54:56;;;;;;;5.70;2.53;;;;;;;14.20;99.14;100010.13;5109311;28;20275;-82
2022/10/24 02:57:24;;;;;;;8.93;2.80;;;;;;;14.16;99.68;100006.00;5108440;28;20234;-82
2022/10/24 02:59:50;;;;;;;5.80;2.80;;;;;;;14.14;99.60;100006.16;5107245;28;20203;-82
2022/10/24 03:02:18;;;;;;;6.00;2.80;;;;;;;14.11;99.74;99998.41;5110502;28;20227;-82
2022/10/24 03:04:44;;;;;;;6.70;3.00;;;;;;;14.09;100.00;99988.81;5109350;28;20232;-82
2022/10/24 03:07:11;;;;;;;5.50;2.80;;;;;;;14.08;100.00;99987.97;5109219;28;20210;-81
2022/10/24 03:09:38;;;;;;;6.40;2.83;;;;;;;14.07;100.00;99980.06;5109338;28;20215;-82
2022/10/24 03:12:04;;;;;;;7.10;3.43;;;;;;;14.06;100.00;99979.22;5109374;28;20216;-82
2022/10/24 03:14:31;;;;;;;6.73;3.37;;;;;;;14.05;100.00;99976.66;5105919;28;20662;-81
2022/10/24 03:16:57;;;;;;;6.27;3.00;;;;;;;14.05;100.00;99971.31;5109792;28;20195;-81
2022/10/24 03:19:25;;;;;;;6.87;3.20;;;;;;;14.06;100.00;99970.34;5109612;28;20215;-82
2022/10/24 03:21:51;;;;;;;9.73;2.90;;;;;;;14.07;100.00;99974.72;5110117;28;20219;-81
2022/10/24 03:24:18;;;;;;;6.67;3.20;;;;;;;14.06;100.00;99967.66;5105546;28;20223;-82
2022/10/24 03:26:44;;;;;;;6.87;3.20;;;;;;;14.08;100.00;99974.56;5105302;28;20236;-81
2022/10/24 03:29:12;;;;;;;9.90;3.33;;;;;;;14.09;100.00;99972.75;5104429;28;20617;-82
2022/10/24 03:31:39;;;;;;;8.73;3.47;;;;;;;14.09;100.00;99975.41;5109617;28;20228;-82
2022/10/24 03:34:06;;;;;;;9.30;3.40;;;;;;;14.08;100.00;99982.59;5109221;28;20196;-81
2022/10/24 03:36:34;;;;;;;3.90;3.07;;;;;;;14.09;100.00;99972.75;5109938;28;20211;-81
2022/10/24 03:39:00;;;;;;;7.03;3.37;;;;;;;14.07;100.00;99974.72;5102101;28;20203;-81
2022/10/24 03:41:26;;;;;;;7.47;3.53;;;;;;;14.06;100.00;99976.53;5109451;28;20215;-82
2022/10/24 03:43:53;;;;;;;5.53;2.93;;;;;;;14.06;100.00;99978.38;5101249;28;20723;-83
2022/10/24 03:46:19;;;;;;;7.40;2.90;;;;;;;14.06;100.00;99973.00;5103718;28;20222;-81
2022/10/24 03:48:46;;;;;;;5.60;3.13;;;;;;;14.07;100.00;99977.38;5108711;28;20207;-82
2022/10/24 03:51:12;;;;;;;8.93;3.37;;;;;;;14.08;100.00;99976.41;5110157;28;20281;-81
2022/10/24 03:53:40;;;;;;;4.60;3.13;;;;;;;14.08;100.00;99976.41;5109634;28;20227;-81
2022/10/24 03:56:07;;;;;;;11.17;3.27;;;;;;;14.09;100.00;99980.78;5109380;28;20771;-82
2022/10/24 03:58:34;;;;;;;7.17;3.40;;;;;;;14.11;100.00;99981.50;5108724;28;20200;-82
2022/10/24 04:01:00;;;;;;;7.57;3.80;;;;;;;14.11;100.00;99979.66;5109474;28;20207;-82
2022/10/24 04:03:27;;;;;;;8.97;3.27;;;;;;;14.14;100.00;99967.84;5107787;28;20231;-83
2022/10/24 04:05:54;;;;;;;7.27;3.70;;;;;;;14.15;100.00;99972.22;5107377;28;20215;-82
2022/10/24 04:08:21;;;;;;;5.60;2.97;;;;;;;14.18;100.00;99971.91;5107815;28;20211;-82
2022/10/24 04:10:49;;;;;;;8.93;3.37;;;;;;;14.19;100.00;99965.56;5109035;28;20758;-82
2022/10/24 04:13:16;;;;;;;6.47;3.17;;;;;;;14.24;100.00;99966.88;5111491;28;20686;-82
2022/10/24 04:15:42;;;;;;;4.87;3.10;;;;;;;14.30;100.00;99965.47;5110708;28;20199;-82
2022/10/24 04:18:09;;;;;;;11.03;3.30;;;;;;;14.34;100.00;99964.19;5112223;28;20215;-81
2022/10/24 04:20:35;;;;;;;6.37;3.20;;;;;;;14.40;100.00;99957.44;5111421;28;20211;-81
2022/10/24 04:23:02;;;;;;;7.73;3.23;;;;;;;14.46;100.00;99956.94;5109125;28;20599;-82
2022/10/24 04:25:28;;;;;;;7.77;3.90;;;;;;;14.50;100.00;99961.88;5112413;28;20231;-82
2022/10/24 04:27:56;;;;;;;7.63;2.90;;;;;;;14.55;100.00;99958.78;5107551;28;20208;-83
2022/10/24 04:30:23;;;;;;;5.87;3.20;;;;;;;14.59;100.00;99963.72;5106716;28;20203;-81
2022/10/24 04:32:49;;;;;;;10.37;3.03;;;;;;;14.64;100.00;99962.47;5112160;28;20224;-81
2022/10/24 04:35:16;;;;;;;8.07;3.27;;;;;;;14.66;100.00;99947.94;5112267;28;20199;-81
2022/10/24 04:37:42;;;;;;;6.00;2.60;;;;;;;14.71;100.00;99958.22;5108991;28;20211;-81
2022/10/24 04:40:09;;;;;;;10.63;3.20;;;;;;;14.74;100.00;99957.94;5109321;28;20199;-81
2022/10/24 04:42:36;;;;;;;6.87;2.50;;;;;;;14.77;100.00;99949.63;5109041;28;20234;-82
2022/10/24 04:45:05;;;;;;;5.20;2.77;;;;;;;14.79;100.00;99951.19;5112730;28;20232;-82
2022/10/24 04:47:31;;;;;;;10.93;3.13;;;;;;;14.80;100.00;99958.22;5105260;28;20204;-83
2022/10/24 04:49:57;;;;;;;6.13;2.57;;;;;;;14.83;100.00;99960.63;5110118;28;20207;-81
2022/10/24 04:52:24;;;;;;;6.73;3.07;;;;;;;14.84;100.00;99958.81;5111609;28;20224;-82
2022/10/24 04:54:50;;;;;;;7.27;3.10;;;;;;;14.84;100.00;99956.97;5111946;28;20207;-81
2022/10/24 04:57:17;;;;;;;7.73;2.80;;;;;;;14.84;100.00;99959.66;5112251;28;20215;-82
2022/10/24 04:59:43;;;;;;;5.27;2.63;;;;;;;14.88;100.00;99955.69;5111480;28;20669;-81
2022/10/24 05:02:11;;;;;;;5.83;3.07;;;;;;;14.91;100.00;99954.56;5112544;28;20226;-81
2022/10/24 05:04:38;;;;;;;5.90;2.63;;;;;;;14.95;100.00;99950.59;5111186;28;20230;-82
2022/10/24 05:07:04;;;;;;;9.40;2.77;;;;;;;14.98;100.00;99947.66;5111519;28;20192;-82
2022/10/24 05:09:31;;;;;;;11.90;2.87;;;;;;;14.97;99.85;99948.63;5111401;28;20204;-83
2022/10/24 05:11:57;;;;;;;9.57;3.30;;;;;;;14.97;99.58;99947.78;5109932;28;20233;-82
2022/10/24 05:14:24;;;;;;;6.63;3.27;;;;;;;14.98;99.60;99947.66;5102777;28;21547;-81
2022/10/24 05:16:51;;;;;;;7.67;3.13;;;;;;;15.02;99.33;99953.56;5111687;28;20205;-81
2022/10/24 05:19:19;;;;;;;5.63;2.67;;;;;;;15.06;99.47;99947.75;5110594;28;20208;-81
2022/10/24 05:21:46;;;;;;;9.17;3.03;;;;;;;15.06;99.32;99945.09;5107945;28;20278;-81
2022/10/24 05:24:12;;;;;;;9.30;3.30;;;;;;;15.06;99.01;99945.09;5108514;28;20223;-81
2022/10/24 05:26:38;;;;;;;5.97;2.97;;;;;;;15.10;98.86;99935.78;5101439;28;20921;-82
2022/10/24 05:29:05;;;;;;;9.67;3.10;;;;;;;15.13;98.48;99932.81;5110842;28;20206;-81
2022/10/24 05:31:32;;;;;;;9.90;3.17;;;;;;;15.16;98.32;99937.88;5110479;28;20216;-81
2022/10/24 05:33:59;;;;;;;8.53;3.33;;;;;;;15.17;98.13;99933.38;5106205;28;20678;-81
2022/10/24 05:36:27;;;;;;;8.63;3.30;;;;;;;15.15;97.81;99938.03;5108428;28;20236;-82
2022/10/24 05:38:53;;;;;;;4.67;2.70;;;;;;;15.15;97.64;99938.03;5109310;28;20210;-81
2022/10/24 05:41:20;;;;;;;7.30;3.37;;;;;;;15.13;97.52;99940.84;5107579;28;20210;-81
2022/10/24 05:43:46;;;;;;;6.77;2.67;;;;;;;15.12;97.36;99938.31;5106959;28;20220;-81
2022/10/24 05:46:12;;;;;;;5.30;2.80;;;;;;;15.12;97.63;99946.34;5111461;27;20208;-82
2022/10/24 05:48:39;;;;;;;6.60;2.87;;;;;;;15.10;97.66;99932.25;5107988;28;20209;-81
2022/10/24 05:51:05;;;;;;;5.90;2.47;;;;;;;15.15;97.30;99928.16;5109641;28;20219;-82
2022/10/24 05:53:33;;;;;;;7.33;2.40;;;;;;;15.18;97.11;99937.75;5105723;28;20223;-81
2022/10/24 05:56:00;;;;;;;8.23;2.70;;;;;;;15.20;96.75;99939.31;5108608;28;20200;-82
2022/10/24 05:58:26;;;;;;;8.00;3.00;;;;;;;15.22;96.77;99939.16;5103054;28;20215;-81
2022/10/24 06:00:57;;;;;;;8.50;2.73;;;;;;;15.23;96.33;99949.72;5105535;28;20213;-83
2022/10/24 06:03:24;;;;;;;10.10;5.30;;;;;;;15.24;96.11;99946.03;5108407;28;20224;-82
2022/10/24 06:05:51;;;;;;;8.93;3.40;;;;;;;15.24;95.39;99951.41;5102240;28;20225;-82
2022/10/24 06:08:18;;;;;;;7.53;3.03;;;;;;;15.24;95.65;99947.88;5108793;28;20547;-81
2022/10/24 06:10:48;;;;;;;7.57;2.70;;;;;;;15.24;95.27;99950.56;5105550;28;20704;-82
2022/10/24 06:13:14;;;;;;;8.50;3.17;;;;;;;15.27;94.99;99961.00;5106303;28;20716;-82
2022/10/24 06:15:41;;;;;;;6.20;2.70;;;;;;;15.29;94.92;99964.41;5099435;28;20209;-81
2022/10/24 06:18:07;;;;;;;6.77;2.47;;;;;;;15.28;94.27;99951.97;5110630;28;20231;-81
2022/10/24 06:20:34;;;;;;;8.93;3.00;;;;;;;15.32;94.13;99947.19;5105569;28;20208;-81
2022/10/24 06:23:00;;;;;;;7.83;2.70;;;;;;;15.35;93.94;99949.56;5109258;28;20225;-81
2022/10/24 06:25:27;;;;;;;7.30;3.00;;;;;;;15.35;93.57;99941.53;5109023;28;20241;-81
2022/10/24 06:27:54;;;;;;;10.07;2.80;;;;;;;15.35;93.35;99941.53;5108736;28;20677;-80
2022/10/24 06:30:21;;;;;;;6.87;3.30;;;;;;;15.35;93.12;99946.88;5105152;28;20837;-81
2022/10/24 06:32:47;;;;;;;8.40;3.13;;;;;;;15.36;93.00;99943.22;5106612;28;20227;-80
2022/10/24 06:35:14;;;;;;;6.10;2.30;;;;;;;15.39;92.51;99954.50;5109281;28;20193;-81
2022/10/24 06:37:41;;;;;;;9.70;2.73;;;;;;;15.40;92.49;99936.56;5099078;28;20250;-82
2022/10/24 06:40:09;;;;;;;9.03;2.70;;;;;;;15.45;91.77;99947.69;5103691;28;20206;-82
2022/10/24 06:42:35;;;;;;;5.07;2.50;;;;;;;15.46;91.90;99954.75;5106698;28;20228;-81
2022/10/24 06:45:04;;;;;;;7.37;2.90;;;;;;;15.49;91.38;99949.09;5109031;28;20235;-82
2022/10/24 06:47:31;;;;;;;5.93;2.47;;;;;;;15.50;91.03;99953.47;5110545;28;20225;-81
2022/10/24 06:49:57;;;;;;;6.00;2.53;;;;;;;15.49;90.84;99952.63;5105992;28;20205;-82
2022/10/24 06:52:24;;;;;;;5.33;2.37;;;;;;;15.52;90.81;99948.81;5109919;28;20229;-81
2022/10/24 06:54:50;;;;;;;5.63;2.73;;;;;;;15.53;90.59;99958.56;5103609;28;20205;-81
2022/10/24 06:57:17;;;;;;;8.27;2.60;;;;;;;15.56;90.25;99961.00;5104277;28;20213;-81
2022/10/24 06:59:44;;;;;;;6.33;2.30;;;;;;;15.58;89.86;99967.91;5101258;28;20203;-82
2022/10/24 07:02:13;;;;;;;5.50;2.77;;;;;;;15.62;89.35;99971.13;5109344;28;20220;-81
2022/10/24 07:04:39;;;;;;;7.53;2.40;;;;;;;15.63;89.41;99972.81;5108572;28;20221;-81
2022/10/24 07:07:06;;;;;;;10.10;3.50;;;;;;;15.65;89.19;99962.78;5107295;28;20561;-82
2022/10/24 07:09:32;;;;;;;7.00;2.77;;;;;;;15.70;88.81;99975.78;5106896;28;20216;-81
2022/10/24 07:11:59;;;;;;;4.20;2.27;;;;;;;15.75;88.39;99963.63;5109843;28;20615;-83
2022/10/24 07:14:25;;;;;;;7.17;2.63;;;;;;;15.77;88.44;99972.34;5111675;28;20239;-82
2022/10/24 07:16:52;;;;;;;4.77;2.20;;;;;;;15.79;88.46;99969.50;5109810;28;20209;-82
2022/10/24 07:19:20;;;;;;;6.80;2.90;;;;;;;15.82;87.73;99958.50;5107651;28;20205;-82
2022/10/24 07:21:46;;;;;;;5.87;2.30;;;;;;;15.86;87.64;99974.16;5110495;28;20233;-82
2022/10/24 07:24:13;;;;;;;9.63;2.40;;;;;;;15.85;87.47;99972.47;5107802;28;20243;-82
2022/10/24 07:26:39;;;;;;;5.43;2.10;;;;;;;15.88;87.30;99982.94;5109684;28;20210;-81
2022/10/24 07:29:06;;;;;;;9.83;2.57;;;;;;;15.92;86.94;99986.16;5110028;28;20199;-81
2022/10/24 07:31:35;;;;;;;8.03;2.70;;;;;;;15.98;86.59;99993.63;5111250;28;20212;-81
2022/10/24 07:34:03;;;;;;;5.23;2.47;;;;;;;16.02;86.28;99983.44;5107360;28;20201;-82
2022/10/24 07:36:30;;;;;;;5.67;2.17;;;;;;;16.05;86.32;99983.13;5109256;28;20212;-81
2022/10/24 07:38:58;;;;;;;7.80;2.70;;;;;;;16.06;86.07;99988.38;5107568;28;20672;-82
2022/10/24 07:41:26;;;;;;;7.07;2.57;;;;;;;16.09;86.01;99988.06;5108245;28;20203;-82
2022/10/24 07:43:54;;;;;;;2.80;1.80;;;;;;;16.13;85.50;99997.50;5107569;28;20604;-82
2022/10/24 07:46:21;;;;;;;6.97;2.83;;;;;;;16.16;85.27;99983.78;5112856;28;20257;-82
2022/10/24 07:48:49;;;;;;;6.97;2.37;;;;;;;16.21;84.93;99994.94;5113335;28;20209;-82
2022/10/24 07:51:16;;;;;;;6.20;2.43;;;;;;;16.25;84.73;99984.75;5113507;28;20206;-82
2022/10/24 07:53:44;;;;;;;8.93;2.53;;;;;;;16.32;84.21;99985.81;5108277;28;20226;-83
2022/10/24 07:56:13;;;;;;;6.30;2.10;;;;;;;16.37;84.18;99988.91;5106551;28;20519;-81
2022/10/24 07:58:40;;;;;;;5.13;2.03;;;;;;;16.42;83.46;99997.38;5110941;28;20231;-82
2022/10/24 08:01:07;;;;;;;5.10;2.27;;;;;;;16.47;83.15;99992.41;5113377;28;20715;-82
2022/10/24 08:03:34;;;;;;;4.60;2.17;;;;;;;16.50;82.92;99984.00;5109364;28;20594;-80
2022/10/24 08:06:00;;;;;;;5.17;2.13;;;;;;;16.58;82.32;99981.41;5112805;28;20226;-81
2022/10/24 08:08:27;;;;;;;3.90;2.27;;;;;;;16.64;82.18;99982.69;5113890;28;20207;-83
2022/10/24 08:10:54;;;;;;;7.40;2.93;;;;;;;16.73;81.32;99970.16;5113173;28;20659;-83
2022/10/24 08:13:21;;;;;;;13.20;2.27;;;;;;;16.82;80.55;99982.72;5112376;28;20221;-82
2022/10/24 08:15:47;;;;;;;4.93;1.80;;;;;;;16.91;79.48;99976.41;5111455;28;20211;-81
2022/10/24 08:18:14;;;;;;;7.33;2.23;;;;;;;17.01;78.33;99963.72;5112108;28;20214;-81
2022/10/24 08:20:40;;;;;;;8.60;2.53;;;;;;;17.10;77.73;99970.84;5113923;28;20198;-81
2022/10/24 08:23:07;;;;;;;7.80;2.63;;;;;;;17.16;77.61;99981.00;5111019;28;20216;-80
2022/10/24 08:25:34;;;;;;;4.40;1.67;;;;;;;17.23;76.99;99973.97;5111022;28;20236;-80
2022/10/24 08:28:01;;;;;;;5.20;2.23;;;;;;;17.28;76.56;99973.53;5112333;28;20209;-82
2022/10/24 08:30:28;;;;;;;4.57;2.00;;;;;;;17.31;76.45;99974.06;5110844;28;20208;-81
2022/10/24 08:32:54;;;;;;;6.23;2.50;;;;;;;17.33;76.42;99974.75;5112462;28;20221;-81
2022/10/24 08:35:21;;;;;;;10.57;2.20;;;;;;;17.42;76.12;99972.09;5102202;28;20206;-81
2022/10/24 08:37:47;;;;;;;6.87;2.40;;;;;;;17.46;75.91;99977.03;5105383;28;20201;-81
2022/10/24 08:40:18;;;;;;;7.07;1.97;;;;;;;17.50;75.69;99973.03;5109991;28;20460;-81
2022/10/24 08:42:45;;;;;;;6.63;1.73;;;;;;;17.59;74.95;99981.97;5103481;28;20702;-80
2022/10/24 08:45:18;;;;;;;7.93;2.57;;;;;;;17.64;74.61;99979.69;5105623;28;20312;-80
2022/10/24 08:47:53;;;;;;;7.43;2.33;;;;;;;17.70;74.21;99968.31;5103502;28;20205;-81
2022/10/24 08:50:24;;;;;;;12.70;2.33;;;;;;;17.76;73.94;99970.34;5102214;28;20208;-81
2022/10/24 08:52:58;;;;;;;7.27;2.47;;;;;;;17.83;73.61;99979.47;5105213;28;20237;-81
2022/10/24 08:55:28;;;;;;;6.93;1.80;;;;;;;17.89;73.27;99970.75;5112205;28;20660;-81
2022/10/24 08:57:58;;;;;;;6.70;2.00;;;;;;;18.00;72.86;99975.03;5108863;28;20216;-81
2022/10/24 09:00:30;;;;;;;6.03;2.40;;;;;;;18.07;72.46;99968.00;5108113;28;20691;-82
2022/10/24 09:03:04;;;;;;;5.63;2.43;;;;;;;18.14;72.13;99968.16;5110880;28;20233;-80
2022/10/24 09:05:36;;;;;;;7.40;2.03;;;;;;;18.22;71.09;99973.59;5108289;28;20265;-81
2022/10/24 09:08:15;;;;;;;6.67;1.80;;;;;;;18.27;70.97;99966.69;5109902;28;20248;-81
2022/10/24 09:10:49;;;;;;;7.70;1.87;;;;;;;18.37;70.43;99964.72;5114137;27;20196;-80
2022/10/24 09:13:17;;;;;;;6.43;1.90;;;;;;;18.41;70.31;99978.72;5104509;28;20829;-81
2022/10/24 09:15:46;;;;;;;5.13;1.60;;;;;;;18.46;70.25;99968.28;5106558;28;20208;-80
2022/10/24 09:18:19;;;;;;;8.27;2.37;;;;;;;18.53;69.63;99958.53;5106306;28;20210;-80
2022/10/24 09:20:47;;;;;;;10.10;2.50;;;;;;;18.59;68.80;99949.81;5106573;28;20212;-80
2022/10/24 09:23:16;;;;;;;5.97;1.70;;;;;;;18.63;68.40;99953.84;5112149;28;20225;-80
2022/10/24 09:25:46;;;;;;;6.23;2.33;;;;;;;18.67;68.61;99941.72;5110214;28;20235;-80
2022/10/24 09:28:13;;;;;;;6.63;1.77;;;;;;;18.70;68.33;99949.50;5109605;28;20237;-81
2022/10/24 09:30:40;;;;;;;7.07;2.03;;;;;;;18.76;68.37;99952.53;5111484;28;20691;-80
2022/10/24 09:33:17;;;;;;;7.97;1.80;;;;;;;18.84;67.22;99960.63;5111861;28;20241;-81
2022/10/24 09:35:49;;;;;;;6.57;1.93;;;;;;;18.90;66.96;99951.88;5108180;28;20666;-81
2022/10/24 09:38:30;;;;;;;5.70;2.03;;;;;;;18.97;67.06;99961.00;5104131;28;20743;-81
2022/10/24 09:40:59;;;;;;;5.57;1.60;;;;;;;19.04;66.98;99957.44;5109285;28;20206;-80
2022/10/24 09:43:32;;;;;;;6.10;1.63;;;;;;;19.10;66.39;99953.25;5108413;28;20245;-80
2022/10/24 09:46:04;;;;;;;6.30;2.23;;;;;;;19.16;66.05;99947.19;5108924;28;20224;-81
2022/10/24 09:48:38;;;;;;;5.57;1.80;;;;;;;19.22;65.56;99946.47;5106978;28;20204;-81
2022/10/24 09:51:07;;;;;;;5.97;1.87;;;;;;;19.25;65.10;99948.84;5105438;28;20210;-81
2022/10/24 09:53:35;;;;;;;5.13;1.77;;;;;;;19.31;65.10;99955.44;5099783;28;20245;-82
2022/10/24 09:56:08;;;;;;;7.13;2.07;;;;;;;19.36;64.76;99955.75;5111700;28;20205;-82
2022/10/24 09:58:34;;;;;;;6.17;2.17;;;;;;;19.37;64.50;99965.53;5104109;28;20797;-81
2022/10/24 10:01:04;;;;;;;8.83;1.93;;;;;;;19.42;64.47;99966.72;5111922;28;20655;-81
2022/10/24 10:03:33;;;;;;;8.83;1.70;;;;;;;19.48;63.72;99973.31;5111674;28;20236;-82
2022/10/24 10:06:03;;;;;;;8.13;1.87;;;;;;;19.53;63.79;99972.81;5109865;28;20222;-80
2022/10/24 10:08:32;;;;;;;4.90;1.80;;;;;;;19.59;63.94;99975.66;5111380;28;20705;-80
2022/10/24 10:11:03;;;;;;;6.83;1.60;;;;;;;19.67;63.54;99981.06;5104891;28;20221;-80
2022/10/24 10:13:31;;;;;;;8.77;1.70;;;;;;;19.71;61.65;99968.03;5111234;28;20224;-81
2022/10/24 10:15:59;;;;;;;5.63;1.60;;;;;;;19.69;61.85;99970.09;5103617;28;20223;-80
2022/10/24 10:18:33;;;;;;;3.60;1.80;;;;;;;19.72;62.31;99972.44;5110765;28;20695;-82
2022/10/24 10:21:10;;;;;;;7.50;1.70;;;;;;;19.75;61.47;99970.22;5108247;28;20209;-80
2022/10/24 10:23:39;;;;;;;5.50;1.40;;;;;;;19.79;61.12;99973.44;5105819;28;20232;-81
2022/10/24 10:26:22;;;;;;;5.80;2.17;;;;;;;19.79;60.85;99976.13;5107445;28;20218;-81
2022/10/24 10:28:53;;;;;;;8.03;1.80;;;;;;;19.73;60.97;99976.81;5109359;27;20661;-81
2022/10/24 10:31:23;;;;;;;4.47;1.57;;;;;;;19.73;61.15;99977.66;5101857;28;20204;-80
2022/10/24 10:34:04;;;;;;;6.10;1.77;;;;;;;19.70;60.80;99978.03;5109224;28;20213;-80
2022/10/24 10:36:38;;;;;;;5.03;2.30;;;;;;;19.73;60.98;99988.47;5089602;28;20195;-81
2022/10/24 10:39:22;;;;;;;5.30;1.70;;;;;;;19.73;61.23;99987.63;5086666;28;20193;-80
2022/10/24 10:41:50;;;;;;;5.97;1.83;;;;;;;19.71;61.02;99985.09;5083170;28;20235;-82
2022/10/24 10:44:34;;;;;;;6.10;1.40;;;;;;;19.68;60.62;99979.22;5089711;28;20209;-82
2022/10/24 10:47:11;;;;;;;6.33;1.70;;;;;;;19.66;60.56;99976.69;5083622;28;20594;-82
2022/10/24 10:49:41;;;;;;;7.03;2.00;;;;;;;19.69;60.01;99997.97;5088467;28;20283;-82
2022/10/24 10:52:12;;;;;;;4.40;2.20;;;;;;;19.70;60.27;100001.50;5085352;28;20814;-81
2022/10/24 10:54:57;;;;;;;4.47;2.20;;;;;;;19.73;60.64;99996.56;5082430;28;20706;-81
2022/10/24 10:57:33;;;;;;;4.88;1.33;;;;;;;19.81;59.97;100001.13;5080885;28;20809;-82
2022/10/24 11:00:08;;;;;;;6.03;2.17;;;;;;;19.82;59.86;99993.88;5080164;28;20196;-80
2022/10/24 11:02:56;;;;;;;4.10;1.90;;;;;;;19.82;58.89;100008.22;5082344;28;20239;-80
2022/10/24 11:05:35;;;;;;;6.77;1.80;;;;;;;19.77;59.30;100007.88;5081310;28;20237;-81
2022/10/24 11:08:17;;;;;;;4.97;1.60;;;;;;;19.72;59.64;100019.22;5078698;28;20210;-80
2022/10/24 11:10:49;;;;;;;4.67;1.60;;;;;;;19.69;59.52;100019.56;5082438;28;20198;-81
2022/10/24 11:13:21;;;;;;;5.37;1.50;;;;;;;19.67;59.48;100023.47;5085331;28;20227;-82
2022/10/24 11:15:52;;;;;;;3.43;1.20;;;;;;;19.67;59.50;100020.75;5079401;28;20218;-82
2022/10/24 11:18:25;;;;;;;4.90;2.27;;;;;;;19.63;59.95;100020.25;5079779;28;20215;-81
2022/10/24 11:20:58;;;;;;;4.87;1.93;;;;;;;19.59;59.59;100034.25;5082451;28;20205;-81
2022/10/24 11:23:31;;;;;;;5.73;1.50;;;;;;;19.57;60.01;100028.19;5087172;28;20234;-81
2022/10/24 11:26:03;;;;;;;6.00;1.60;;;;;;;19.56;59.76;100026.50;5084616;28;20238;-80
2022/10/24 11:28:36;;;;;;;2.50;1.40;;;;;;;19.53;60.00;100026.81;5085318;28;20211;-80
2022/10/24 11:31:07;;;;;;;5.00;2.13;;;;;;;19.57;60.01;100023.63;5087923;28;20197;-81
2022/10/24 11:33:40;;;;;;;6.73;1.70;;;;;;;19.61;60.20;100032.22;5081100;28;20575;-81
2022/10/24 11:36:14;;;;;;;6.70;1.60;;;;;;;19.60;60.22;100030.53;5086221;28;20615;-80
2022/10/24 11:38:46;;;;;;;4.90;1.77;;;;;;;19.62;60.39;100034.75;5081585;28;20210;-80